createdAt,value
2019-04-25T00:00:38.033Z,13.65
2019-04-25T00:03:06.819Z,13.43
2019-04-25T00:05:35.274Z,13.60
2019-04-25T00:08:04.397Z,14.38
2019-04-25T00:10:33.079Z,14.73
2019-04-25T00:13:03.625Z,14.17
2019-04-25T00:15:51.945Z,14.33
2019-04-25T00:18:22.110Z,14.00
2019-04-25T00:20:55.265Z,14.23
2019-04-25T00:23:23.806Z,13.18
2019-04-25T00:25:53.902Z,13.80
2019-04-25T00:28:22.346Z,13.62
2019-04-25T00:30:52.251Z,13.80
2019-04-25T00:33:21.596Z,13.20
2019-04-25T00:35:51.684Z,13.35
2019-04-25T00:38:22.110Z,13.10
2019-04-25T00:40:52.421Z,13.50
2019-04-25T00:43:21.471Z,12.30
2019-04-25T00:45:51.642Z,13.32
2019-04-25T00:48:20.400Z,13.55
2019-04-25T00:50:48.943Z,12.28
2019-04-25T00:53:17.423Z,13.30
2019-04-25T00:55:46.446Z,13.80
2019-04-25T00:58:16.713Z,13.10
2019-04-25T01:00:55.895Z,12.95
2019-04-25T01:03:26.430Z,12.03
2019-04-25T01:05:54.881Z,12.15
2019-04-25T01:08:23.449Z,15.00
2019-04-25T01:10:52.313Z,14.75
2019-04-25T01:13:22.340Z,14.70
2019-04-25T01:15:52.567Z,13.08
2019-04-25T01:18:21.330Z,12.10
2019-04-25T01:20:53.638Z,11.85
2019-04-25T01:23:23.715Z,11.80
2019-04-25T01:25:53.786Z,12.47
2019-04-25T01:28:24.283Z,11.90
2019-04-25T01:30:54.792Z,11.40
2019-04-25T01:33:23.988Z,11.73
2019-04-25T01:35:54.883Z,11.28
2019-04-25T01:38:28.947Z,11.93
2019-04-25T01:40:59.105Z,11.85
2019-04-25T01:43:29.198Z,10.98
2019-04-25T01:45:57.996Z,11.60
2019-04-25T01:48:26.549Z,12.90
2019-04-25T01:50:55.498Z,10.98
2019-04-25T01:53:24.256Z,11.90
2019-04-25T01:56:01.006Z,11.15
2019-04-25T01:58:23.630Z,11.00
2019-04-25T02:00:54.722Z,10.82
2019-04-25T02:03:26.648Z,10.80
2019-04-25T02:05:54.900Z,10.88
2019-04-25T02:08:23.899Z,10.68
2019-04-25T02:11:06.070Z,10.93
2019-04-25T02:13:35.832Z,10.82
2019-04-25T02:16:05.315Z,10.35
2019-04-25T02:18:33.934Z,10.53
2019-04-25T02:21:04.407Z,10.88
2019-04-25T02:23:34.099Z,10.45
2019-04-25T02:26:13.895Z,10.48
2019-04-25T02:28:33.826Z,9.98
2019-04-25T02:31:08.182Z,10.98
2019-04-25T02:33:34.048Z,10.50
2019-04-25T02:36:08.270Z,9.33
2019-04-25T02:38:34.263Z,9.40
2019-04-25T02:41:06.861Z,10.38
2019-04-25T02:43:35.049Z,9.63
2019-04-25T02:46:12.141Z,9.88
2019-04-25T02:48:44.074Z,9.58
2019-04-25T02:51:14.583Z,10.45
2019-04-25T02:53:44.887Z,10.60
2019-04-25T02:56:27.409Z,23.00
2019-04-25T02:58:44.292Z,32.98
2019-04-25T03:01:21.980Z,48.35
2019-04-25T03:03:45.940Z,48.78
2019-04-25T03:06:15.045Z,26.27
2019-04-25T03:08:44.943Z,27.25
2019-04-25T03:11:14.943Z,32.60
2019-04-25T03:13:44.192Z,24.27
2019-04-25T03:16:13.954Z,15.93
2019-04-25T03:18:44.566Z,12.03
2019-04-25T03:21:17.828Z,12.15
2019-04-25T03:23:48.748Z,10.50
2019-04-25T03:26:17.406Z,11.00
2019-04-25T03:28:45.893Z,10.20
2019-04-25T03:31:22.170Z,10.25
2019-04-25T03:33:45.990Z,9.73
2019-04-25T03:36:17.054Z,9.58
2019-04-25T03:38:44.969Z,10.60
2019-04-25T03:41:14.782Z,10.13
2019-04-25T03:43:44.255Z,10.08
2019-04-25T03:48:43.963Z,9.43
2019-04-25T03:51:15.379Z,8.75
2019-04-25T03:53:43.755Z,9.20
2019-04-25T03:56:12.973Z,9.30
2019-04-25T03:58:43.956Z,8.95
2019-04-25T04:01:15.382Z,9.00
2019-04-25T04:03:43.965Z,9.53
2019-04-25T04:06:14.199Z,9.75
2019-04-25T04:08:44.301Z,9.30
2019-04-25T04:11:14.601Z,9.25
2019-04-25T04:13:44.019Z,10.53
2019-04-25T04:18:44.238Z,9.63
2019-04-25T04:21:16.245Z,9.65
2019-04-25T04:23:46.378Z,9.48
2019-04-25T04:26:15.697Z,10.00
2019-04-25T04:28:44.279Z,9.43
2019-04-25T04:31:14.351Z,9.78
2019-04-25T04:33:43.179Z,9.50
2019-04-25T04:36:11.629Z,9.40
2019-04-25T04:38:40.133Z,9.30
2019-04-25T04:41:09.628Z,9.08
2019-04-25T04:46:06.017Z,8.65
2019-04-25T04:48:34.462Z,10.05
2019-04-25T04:51:03.443Z,10.15
2019-04-25T04:53:33.881Z,9.25
2019-04-25T04:56:02.333Z,9.15
2019-04-25T04:58:30.781Z,9.05
2019-04-25T05:00:59.258Z,8.50
2019-04-25T05:03:34.206Z,8.50
2019-04-25T05:06:14.989Z,8.00
2019-04-25T05:08:44.949Z,8.85
2019-04-25T05:11:15.422Z,8.30
2019-04-25T05:13:44.094Z,8.10
2019-04-25T05:16:15.033Z,8.25
2019-04-25T05:18:43.772Z,8.88
2019-04-25T05:23:41.153Z,9.20
2019-04-25T05:26:09.591Z,8.95
2019-04-25T05:28:38.071Z,8.28
2019-04-25T05:31:10.930Z,8.48
2019-04-25T05:33:39.376Z,8.70
2019-04-25T05:36:07.938Z,8.40
2019-04-25T05:38:36.380Z,8.03
2019-04-25T05:41:06.538Z,8.35
2019-04-25T05:43:35.011Z,8.40
2019-04-25T05:46:03.480Z,9.13
2019-04-25T05:48:31.981Z,8.10
2019-04-25T05:51:00.466Z,9.18
2019-04-25T05:53:31.424Z,7.92
2019-04-25T05:55:59.928Z,9.00
2019-04-25T05:58:28.387Z,8.48
2019-04-25T06:00:59.821Z,7.67
2019-04-25T06:03:28.339Z,8.53
2019-04-25T06:05:56.854Z,8.08
2019-04-25T06:08:27.964Z,6.90
2019-04-25T06:10:58.239Z,7.90
2019-04-25T06:13:31.344Z,8.03
2019-04-25T06:16:03.482Z,7.12
2019-04-25T06:18:33.935Z,6.78
2019-04-25T06:21:03.170Z,7.40
2019-04-25T06:23:51.917Z,7.40
2019-04-25T06:26:32.739Z,7.30
2019-04-25T06:28:57.069Z,6.85
2019-04-25T06:31:23.832Z,7.15
2019-04-25T06:33:53.971Z,6.33
2019-04-25T06:36:24.566Z,6.97
2019-04-25T06:38:56.464Z,6.45
2019-04-25T06:41:35.960Z,6.22
2019-04-25T06:46:53.558Z,7.45
2019-04-25T06:49:27.716Z,6.97
2019-04-25T06:52:19.170Z,6.97
2019-04-25T06:54:47.629Z,7.00
2019-04-25T06:57:16.135Z,6.95
2019-04-25T06:59:44.644Z,6.00
2019-04-25T07:02:14.029Z,6.23
2019-04-25T07:09:43.399Z,5.83
2019-04-25T07:12:13.441Z,5.72
2019-04-25T07:14:43.871Z,6.10
2019-04-25T07:17:14.153Z,5.80
2019-04-25T07:19:44.057Z,6.15
2019-04-25T07:22:14.065Z,5.47
2019-04-25T07:24:43.987Z,6.00
2019-04-25T07:27:17.024Z,6.10
2019-04-25T07:30:02.032Z,5.70
2019-04-25T07:32:41.669Z,5.55
2019-04-25T07:35:10.245Z,5.97
2019-04-25T07:37:41.578Z,6.40
2019-04-25T07:40:09.894Z,5.78
2019-04-25T07:45:08.927Z,6.47
2019-04-25T07:47:37.713Z,6.05
2019-04-25T07:50:09.481Z,6.10
2019-04-25T07:52:38.059Z,5.45
2019-04-25T07:55:06.813Z,5.83
2019-04-25T07:57:35.909Z,5.85
2019-04-25T08:00:13.311Z,5.87
2019-04-25T08:02:43.440Z,6.00
2019-04-25T08:05:14.488Z,5.60
2019-04-25T08:07:43.669Z,5.42
2019-04-25T08:10:14.069Z,5.67
2019-04-25T08:12:44.144Z,5.60
2019-04-25T08:15:16.051Z,5.78
2019-04-25T08:18:04.003Z,5.80
2019-04-25T08:20:43.901Z,5.62
2019-04-25T08:23:13.871Z,5.35
2019-04-25T08:25:43.275Z,5.30
2019-04-25T08:30:39.748Z,5.03
2019-04-25T08:33:09.897Z,6.30
2019-04-25T08:35:39.918Z,5.90
2019-04-25T08:38:08.453Z,6.15
2019-04-25T08:40:37.703Z,6.10
2019-04-25T08:43:07.515Z,6.08
2019-04-25T08:45:37.379Z,6.40
2019-04-25T08:48:06.642Z,6.40
2019-04-25T08:50:41.087Z,6.03
2019-04-25T08:53:10.212Z,5.85
2019-04-25T08:55:44.338Z,5.53
2019-04-25T08:58:17.793Z,5.78
2019-04-25T09:01:04.422Z,6.10
2019-04-25T09:03:40.341Z,5.17
2019-04-25T09:06:09.444Z,5.33
2019-04-25T09:08:38.450Z,5.12
2019-04-25T09:11:07.898Z,5.70
2019-04-25T09:13:38.094Z,5.77
2019-04-25T09:16:06.691Z,5.42
2019-04-25T09:18:36.996Z,5.58
2019-04-25T09:21:05.616Z,6.03
2019-04-25T09:23:36.414Z,5.93
2019-04-25T09:26:05.672Z,5.78
2019-04-25T09:28:37.608Z,5.80
2019-04-25T09:31:04.906Z,6.22
2019-04-25T09:33:35.132Z,5.80
2019-04-25T09:36:04.889Z,5.45
2019-04-25T09:38:35.657Z,5.33
2019-04-25T09:41:04.721Z,5.33
2019-04-25T09:43:33.569Z,4.97
2019-04-25T09:46:06.697Z,6.97
2019-04-25T09:48:44.578Z,5.92
2019-04-25T09:51:17.751Z,5.42
2019-04-25T09:53:51.215Z,5.83
2019-04-25T09:56:27.685Z,8.20
2019-04-25T09:58:57.883Z,5.55
2019-04-25T10:01:27.411Z,5.25
2019-04-25T10:03:55.952Z,5.00
2019-04-25T10:06:24.966Z,6.37
2019-04-25T10:08:54.247Z,5.72
2019-04-25T10:11:23.746Z,5.15
2019-04-25T10:14:06.804Z,5.50
2019-04-25T10:16:35.364Z,5.47
2019-04-25T10:19:04.146Z,5.62
2019-04-25T10:21:34.183Z,5.40
2019-04-25T10:24:03.584Z,5.72
2019-04-25T10:29:03.340Z,4.95
2019-04-25T10:31:31.839Z,4.80
2019-04-25T10:34:00.353Z,4.95
2019-04-25T10:36:28.809Z,4.87
2019-04-25T10:39:07.610Z,5.30
2019-04-25T10:41:27.750Z,5.78
2019-04-25T10:43:56.325Z,5.40
2019-04-25T10:46:24.802Z,5.03
2019-04-25T10:48:55.912Z,5.40
2019-04-25T10:51:23.969Z,5.50
2019-04-25T10:53:53.909Z,5.08
2019-04-25T10:56:24.316Z,5.10
2019-04-25T10:58:54.825Z,5.15
2019-04-25T11:01:24.441Z,5.00
2019-04-25T11:03:55.730Z,5.33
2019-04-25T11:06:26.082Z,5.28
2019-04-25T11:08:56.485Z,5.55
2019-04-25T11:11:25.319Z,5.97
2019-04-25T11:13:56.685Z,5.42
2019-04-25T11:16:25.484Z,5.45
2019-04-25T11:18:54.835Z,5.53
2019-04-25T11:21:24.258Z,5.28
2019-04-25T11:23:55.022Z,4.75
2019-04-25T11:26:23.502Z,5.78
2019-04-25T11:28:52.773Z,5.10
2019-04-25T11:31:23.619Z,5.67
2019-04-25T11:33:53.970Z,5.80
2019-04-25T11:36:22.882Z,5.90
2019-04-25T11:39:09.329Z,7.67
2019-04-25T11:41:38.106Z,5.28
2019-04-25T11:44:06.810Z,5.22
2019-04-25T11:46:35.820Z,5.08
2019-04-25T11:49:07.626Z,6.05
2019-04-25T11:51:36.269Z,4.95
2019-04-25T11:54:04.937Z,5.35
2019-04-25T11:56:34.227Z,4.97
2019-04-25T11:59:04.445Z,4.87
2019-04-25T12:01:33.655Z,5.25
2019-04-25T12:04:04.005Z,5.33
2019-04-25T12:06:33.494Z,5.10
2019-04-25T12:09:03.984Z,5.28
2019-04-25T12:11:33.985Z,5.22
2019-04-25T12:14:04.244Z,5.12
2019-04-25T12:16:32.871Z,5.20
2019-04-25T12:19:01.335Z,4.97
2019-04-25T12:21:29.857Z,5.00
2019-04-25T12:23:58.333Z,5.28
2019-04-25T12:26:26.872Z,5.10
2019-04-25T12:28:56.590Z,4.40
2019-04-25T12:31:25.409Z,5.17
2019-04-25T12:33:55.228Z,5.05
2019-04-25T12:36:24.173Z,4.85
2019-04-25T12:38:54.234Z,4.80
2019-04-25T12:41:22.903Z,5.58
2019-04-25T12:43:58.876Z,5.10
2019-04-25T12:46:28.968Z,5.35
2019-04-25T12:48:57.729Z,5.10
2019-04-25T12:51:26.433Z,4.87
2019-04-25T12:53:55.831Z,4.60
2019-04-25T12:56:24.840Z,4.75
2019-04-25T12:58:55.093Z,5.37
2019-04-25T13:01:24.909Z,4.75
2019-04-25T13:06:23.831Z,5.00
2019-04-25T13:08:54.096Z,4.40
2019-04-25T13:11:23.988Z,4.40
2019-04-25T13:13:52.686Z,4.50
2019-04-25T13:16:21.280Z,4.55
2019-04-25T13:18:49.872Z,4.67
2019-04-25T13:21:18.440Z,4.78
2019-04-25T13:23:46.899Z,4.75
2019-04-25T13:26:17.056Z,3.98
2019-04-25T13:28:50.097Z,4.40
2019-04-25T13:31:23.374Z,4.28
2019-04-25T13:34:04.677Z,4.62
2019-04-25T13:36:34.708Z,4.65
2019-04-25T13:39:07.165Z,4.12
2019-04-25T13:41:35.756Z,4.70
2019-04-25T13:44:05.126Z,5.00
2019-04-25T13:46:34.326Z,4.87
2019-04-25T13:49:04.267Z,4.72
2019-04-25T13:51:33.241Z,4.03
2019-04-25T13:56:30.701Z,4.90
2019-04-25T13:58:59.441Z,5.00
2019-04-25T14:01:28.062Z,4.58
2019-04-25T14:03:56.774Z,4.60
2019-04-25T14:06:26.163Z,5.80
2019-04-25T14:08:55.200Z,3.83
2019-04-25T14:11:24.189Z,5.80
2019-04-25T14:13:52.917Z,4.35
2019-04-25T14:16:25.390Z,3.67
2019-04-25T14:19:07.322Z,3.90
2019-04-25T14:21:35.785Z,4.37
2019-04-25T14:24:04.877Z,4.22
2019-04-25T14:26:33.390Z,3.87
2019-04-25T14:29:01.981Z,3.90
2019-04-25T14:31:41.529Z,4.50
2019-04-25T14:34:01.214Z,4.85
2019-04-25T14:38:57.491Z,4.70
2019-04-25T14:41:26.101Z,4.75
2019-04-25T14:43:54.593Z,4.90
2019-04-25T14:46:23.045Z,4.70
2019-04-25T14:48:51.491Z,5.33
2019-04-25T14:51:20.044Z,4.45
2019-04-25T14:53:48.567Z,4.70
2019-04-25T14:56:18.662Z,4.20
2019-04-25T14:58:47.150Z,4.15
2019-04-25T15:01:17.313Z,4.62
2019-04-25T15:03:45.952Z,4.87
2019-04-25T15:06:14.520Z,4.70
2019-04-25T15:08:42.952Z,4.95
2019-04-25T15:11:11.402Z,4.55
2019-04-25T15:13:40.006Z,4.47
2019-04-25T15:16:08.525Z,4.25
2019-04-25T15:18:46.636Z,4.42
2019-04-25T15:21:07.524Z,4.08
2019-04-25T15:23:36.034Z,4.00
2019-04-25T15:26:04.652Z,4.67
2019-04-25T15:28:33.155Z,4.35
2019-04-25T15:31:01.623Z,4.08
2019-04-25T15:33:30.377Z,4.92
2019-04-25T15:36:00.841Z,4.45
2019-04-25T15:38:33.577Z,4.40
2019-04-25T15:41:06.505Z,4.60
2019-04-25T15:43:42.096Z,4.62
2019-04-25T15:46:12.212Z,4.95
2019-04-25T15:48:41.196Z,4.70
2019-04-25T15:53:38.117Z,4.55
2019-04-25T15:56:06.757Z,4.67
2019-04-25T15:58:35.273Z,4.80
2019-04-25T16:01:06.159Z,4.40
2019-04-25T16:03:35.216Z,5.22
2019-04-25T16:06:04.022Z,4.62
2019-04-25T16:08:33.013Z,4.47
2019-04-25T16:13:30.171Z,4.80
2019-04-25T16:15:58.852Z,4.50
2019-04-25T16:18:27.377Z,5.05
2019-04-25T16:20:56.941Z,4.65
2019-04-25T16:23:25.498Z,4.92
2019-04-25T16:25:53.942Z,4.90
2019-04-25T16:28:22.403Z,5.17
2019-04-25T16:30:50.964Z,5.72
2019-04-25T16:33:19.684Z,6.05
2019-04-25T16:35:48.200Z,4.90
2019-04-25T16:38:17.162Z,5.95
2019-04-25T16:40:45.737Z,5.15
2019-04-25T16:43:15.892Z,5.03
2019-04-25T16:45:44.360Z,4.65
2019-04-25T16:48:12.945Z,5.67
2019-04-25T16:50:42.082Z,5.67
2019-04-25T16:55:38.824Z,4.78
2019-04-25T16:58:07.703Z,4.60
2019-04-25T17:00:40.893Z,4.65
2019-04-25T17:03:09.605Z,4.92
2019-04-25T17:05:39.316Z,5.05
2019-04-25T17:08:08.136Z,5.17
2019-04-25T17:10:36.909Z,5.00
2019-04-25T17:13:05.620Z,4.72
2019-04-25T17:15:41.795Z,4.70
2019-04-25T17:18:14.450Z,5.17
2019-04-25T17:20:45.136Z,4.70
2019-04-25T17:23:13.690Z,5.10
2019-04-25T17:25:42.200Z,5.00
2019-04-25T17:28:10.723Z,4.70
2019-04-25T17:30:40.853Z,5.03
2019-04-25T17:33:27.059Z,5.25
2019-04-25T17:36:00.262Z,5.10
2019-04-25T17:38:31.101Z,5.92
2019-04-25T17:40:59.919Z,4.55
2019-04-25T17:43:28.396Z,4.97
2019-04-25T17:45:56.912Z,5.00
2019-04-25T17:48:25.368Z,5.00
2019-04-25T17:50:53.980Z,5.00
2019-04-25T17:53:22.575Z,5.33
2019-04-25T17:55:51.084Z,5.20
2019-04-25T17:58:19.579Z,5.50
2019-04-25T18:00:48.476Z,5.97
2019-04-25T18:03:17.368Z,6.72
2019-04-25T18:05:46.097Z,6.78
2019-04-25T18:08:14.802Z,8.98
2019-04-25T18:10:44.190Z,6.35
2019-04-25T18:13:12.925Z,7.17
2019-04-25T18:15:57.745Z,7.03
2019-04-25T18:18:45.713Z,6.62
2019-04-25T18:21:14.184Z,7.22
2019-04-25T18:23:59.332Z,7.40
2019-04-25T18:26:35.326Z,7.40
2019-04-25T18:29:17.652Z,7.08
2019-04-25T18:31:46.402Z,6.37
2019-04-25T18:34:16.610Z,6.83
2019-04-25T18:36:49.720Z,6.15
2019-04-25T18:39:25.880Z,6.55
2019-04-25T18:42:10.772Z,7.90
2019-04-25T18:44:39.976Z,6.95
2019-04-25T18:49:37.658Z,7.00
2019-04-25T18:52:08.336Z,7.22
2019-04-25T18:54:38.775Z,6.30
2019-04-25T18:57:27.299Z,7.28
2019-04-25T18:59:57.444Z,5.97
2019-04-25T19:02:33.312Z,7.22
2019-04-25T19:05:09.424Z,7.10
2019-04-25T19:07:38.620Z,7.15
2019-04-25T19:10:09.056Z,6.78
2019-04-25T19:12:38.753Z,6.97
2019-04-25T19:15:08.255Z,6.87
2019-04-25T19:17:36.729Z,7.00
2019-04-25T19:20:05.908Z,7.47
2019-04-25T19:22:34.391Z,7.03
2019-04-25T19:25:02.842Z,7.33
2019-04-25T19:27:31.365Z,7.03
2019-04-25T19:29:59.892Z,7.63
2019-04-25T19:32:28.733Z,8.63
2019-04-25T19:34:57.248Z,7.70
2019-04-25T19:37:25.728Z,8.15
2019-04-25T19:40:07.686Z,7.87
2019-04-25T19:42:41.109Z,8.80
2019-04-25T19:45:10.494Z,9.88
2019-04-25T19:47:38.975Z,8.25
2019-04-25T19:50:07.792Z,7.63
2019-04-25T19:52:36.348Z,8.45
2019-04-25T19:55:06.432Z,8.30
2019-04-25T19:57:34.905Z,8.50
2019-04-25T20:00:04.327Z,8.75
2019-04-25T20:05:13.054Z,7.95
2019-04-25T20:10:22.506Z,7.17
2019-04-25T20:12:53.361Z,7.95
2019-04-25T20:15:22.260Z,7.58
2019-04-25T20:17:51.886Z,7.23
2019-04-25T20:20:20.493Z,7.35
2019-04-25T20:22:50.270Z,6.85
2019-04-25T20:25:22.044Z,7.20
2019-04-25T20:27:50.810Z,7.10
2019-04-25T20:30:19.545Z,6.83
2019-04-25T20:32:49.009Z,7.80
2019-04-25T20:35:17.752Z,7.62
2019-04-25T20:37:47.372Z,6.97
2019-04-25T20:40:16.588Z,8.20
2019-04-25T20:42:45.580Z,7.92
2019-04-25T20:45:15.876Z,7.85
2019-04-25T20:47:44.545Z,7.53
2019-04-25T20:50:13.432Z,7.58
2019-04-25T20:52:41.967Z,7.40
2019-04-25T20:55:10.708Z,8.35
2019-04-25T20:57:39.168Z,8.08
2019-04-25T21:00:09.837Z,7.72
2019-04-25T21:02:38.320Z,7.95
2019-04-25T21:05:06.916Z,8.10
2019-04-25T21:07:35.359Z,7.73
2019-04-25T21:10:05.078Z,8.25
2019-04-25T21:12:33.524Z,8.28
2019-04-25T21:15:09.535Z,8.83
2019-04-25T21:17:42.341Z,9.08
2019-04-25T21:20:13.970Z,8.40
2019-04-25T21:22:42.445Z,9.23
2019-04-25T21:25:11.530Z,8.58
2019-04-25T21:27:40.118Z,8.10
2019-04-25T21:30:09.897Z,8.37
2019-04-25T21:32:53.093Z,8.25
2019-04-25T21:35:22.526Z,8.53
2019-04-25T21:37:51.124Z,8.28
2019-04-25T21:40:28.184Z,8.15
2019-04-25T21:42:58.549Z,7.87
2019-04-25T21:45:27.269Z,8.05
2019-04-25T21:47:56.901Z,8.63
2019-04-25T21:50:25.684Z,8.48
2019-04-25T21:52:54.451Z,9.20
2019-04-25T21:57:51.798Z,8.60
2019-04-25T22:00:22.337Z,9.28
2019-04-25T22:02:51.093Z,9.93
2019-04-25T22:05:19.632Z,9.23
2019-04-25T22:07:48.448Z,10.68
2019-04-25T22:10:17.390Z,10.75
2019-04-25T22:12:45.901Z,10.37
2019-04-25T22:15:14.789Z,10.35
2019-04-25T22:17:43.269Z,10.75
2019-04-25T22:20:11.962Z,9.90
2019-04-25T22:22:40.784Z,11.05
2019-04-25T22:25:10.052Z,11.77
2019-04-25T22:27:38.736Z,9.65
2019-04-25T22:30:09.636Z,10.82
2019-04-25T22:32:40.045Z,10.45
2019-04-25T22:35:25.577Z,8.60
2019-04-25T22:37:54.190Z,8.85
2019-04-25T22:40:22.717Z,8.77
2019-04-25T22:42:51.225Z,9.13
2019-04-25T22:45:19.788Z,7.70
2019-04-25T22:47:48.509Z,10.30
2019-04-25T22:50:17.245Z,6.75
2019-04-25T22:52:45.870Z,6.50
2019-04-25T22:55:17.045Z,6.93
2019-04-25T22:57:45.779Z,6.65
2019-04-25T23:00:16.410Z,7.78
2019-04-25T23:02:52.576Z,6.45
2019-04-25T23:05:22.933Z,6.00
2019-04-25T23:07:51.453Z,6.22
2019-04-25T23:10:20.177Z,5.95
2019-04-25T23:12:50.813Z,6.10
2019-04-25T23:15:19.326Z,5.92
2019-04-25T23:17:48.211Z,5.65
2019-04-25T23:20:17.061Z,5.15
2019-04-25T23:22:45.501Z,5.83
2019-04-25T23:25:16.100Z,5.62
2019-04-25T23:27:55.032Z,5.50
2019-04-25T23:30:25.493Z,6.12
2019-04-25T23:32:53.941Z,6.05
2019-04-25T23:35:29.535Z,6.17
2019-04-25T23:37:52.584Z,5.45
2019-04-25T23:40:21.097Z,5.05
2019-04-25T23:42:49.592Z,6.08
2019-04-25T23:45:18.041Z,5.73
2019-04-25T23:47:46.561Z,5.73
2019-04-25T23:50:15.425Z,5.97
2019-04-25T23:52:43.916Z,6.33
2019-04-25T23:55:13.066Z,7.37
2019-04-25T23:57:41.693Z,6.35
